Time;durP1;ratioP1;P1;durP2;ratioP2;P2;SDS_P1;SDS_P2;PMS_P1;PMS_P2;Temp;Humidity;BMP_temperature;BMP_pressure;BME280_temperature;BME280_humidity;BME280_pressure;Samples;Min_cycle;Max_cycle;Signal;HPM_P1;HPM_P2
2022/10/17 00:01:30;;;;;;;;;;;14.70;99.90;;;;;;5082422;28;19939;-75
2022/10/17 00:03:56;;;;;;;;;;;14.60;99.90;;;;;;5082661;28;19954;-76
2022/10/17 00:06:21;;;;;;;;;;;14.60;99.90;;;;;;5082504;28;19921;-76
2022/10/17 00:08:47;;;;;;;;;;;14.60;99.90;;;;;;5083045;28;19917;-76
2022/10/17 00:11:21;;;;;;;;;;;14.60;99.90;;;;;;5082797;28;19954;-76
2022/10/17 00:13:47;;;;;;;;;;;14.60;99.90;;;;;;5082026;28;19912;-76
2022/10/17 00:16:13;;;;;;;;;;;14.60;99.90;;;;;;5065273;28;20230;-75
2022/10/17 00:18:38;;;;;;;;;;;14.60;99.90;;;;;;5083048;28;19916;-75
2022/10/17 00:21:04;;;;;;;;;;;14.60;99.90;;;;;;5082992;28;19913;-76
2022/10/17 00:23:30;;;;;;;;;;;14.60;99.90;;;;;;5082764;28;20214;-75
2022/10/17 00:25:59;;;;;;;;;;;14.60;99.90;;;;;;5082924;28;19943;-76
2022/10/17 00:28:25;;;;;;;;;;;14.60;99.90;;;;;;5082540;28;20218;-75
2022/10/17 00:30:58;;;;;;;;;;;14.60;99.90;;;;;;5081667;28;19908;-75
2022/10/17 00:33:23;;;;;;;;;;;14.60;99.90;;;;;;5081905;28;20119;-76
2022/10/17 00:35:49;;;;;;;;;;;14.50;99.90;;;;;;5081361;28;19909;-76
2022/10/17 00:38:15;;;;;;;;;;;14.50;99.90;;;;;;5082290;28;19912;-77
2022/10/17 00:40:40;;;;;;;;;;;14.50;99.90;;;;;;5082428;28;19912;-75
2022/10/17 00:43:16;;;;;;;;;;;14.50;99.90;;;;;;5081454;28;19954;-75
2022/10/17 00:45:42;;;;;;;;;;;14.40;99.90;;;;;;5064625;28;19921;-76
2022/10/17 00:48:08;;;;;;;;;;;14.40;99.90;;;;;;5082329;28;19947;-76
2022/10/17 00:50:34;;;;;;;;;;;14.40;99.90;;;;;;5064546;28;19946;-75
2022/10/17 00:53:00;;;;;;;;;;;14.40;99.90;;;;;;5081421;28;20144;-75
2022/10/17 00:55:33;;;;;;;;;;;14.40;99.90;;;;;;5064727;28;19913;-76
2022/10/17 00:57:59;;;;;;;;;;;14.40;99.90;;;;;;5064097;28;19912;-75
2022/10/17 01:00:25;;;;;;;;;;;14.40;99.90;;;;;;5064643;28;20016;-75
2022/10/17 01:02:51;;;;;;;;;;;14.40;99.90;;;;;;5082382;28;19909;-75
2022/10/17 01:05:17;;;;;;;;;;;14.40;99.90;;;;;;5082074;28;19995;-75
2022/10/17 01:07:42;;;;;;;;;;;14.40;99.90;;;;;;5067593;28;19939;-76
2022/10/17 01:10:08;;;;;;;;;;;14.30;99.90;;;;;;5086465;28;19915;-76
2022/10/17 01:12:37;;;;;;;;;;;14.30;99.90;;;;;;5085298;28;19916;-77
2022/10/17 01:15:21;;;;;;;;;;;14.30;99.90;;;;;;5086256;28;20215;-76
2022/10/17 01:18:03;;;;;;;;;;;14.30;99.90;;;;;;5086044;28;19908;-76
2022/10/17 01:20:46;;;;;;;;;;;14.30;99.90;;;;;;5085088;28;19909;-75
2022/10/17 01:23:32;;;;;;;;;;;14.30;99.90;;;;;;5069949;28;19993;-75
2022/10/17 01:26:19;;;;;;;;;;;14.30;99.90;;;;;;5085042;28;19932;-75
2022/10/17 01:29:09;;;;;;;;;;;14.30;99.90;;;;;;5086110;28;19915;-75
2022/10/17 01:31:38;;;;;;;;;;;14.30;99.90;;;;;;5085044;28;19912;-76
2022/10/17 01:34:42;;;;;;;;;;;14.30;99.90;;;;;;5086074;28;19908;-75
2022/10/17 01:37:20;;;;;;;;;;;14.30;99.90;;;;;;5083541;28;19997;-75
2022/10/17 01:39:58;;;;;;;;;;;14.30;99.90;;;;;;5069117;28;19979;-75
2022/10/17 01:42:52;;;;;;;;;;;14.30;99.90;;;;;;5084744;28;19915;-76
2022/10/17 01:45:39;;;;;;;;;;;14.30;99.90;;;;;;5084650;28;19920;-76
2022/10/17 01:48:08;;;;;;;;;;;14.30;99.90;;;;;;5067645;28;20199;-76
2022/10/17 01:50:36;;;;;;;;;;;14.30;99.90;;;;;;5068182;28;19915;-75
2022/10/17 01:53:06;;;;;;;;;;;14.20;99.90;;;;;;5068039;28;19908;-75
2022/10/17 01:55:35;;;;;;;;;;;14.20;99.90;;;;;;5068145;28;19965;-76
2022/10/17 01:58:18;;;;;;;;;;;14.20;99.90;;;;;;5084179;28;20242;-75
2022/10/17 02:00:43;;;;;;;;;;;14.10;99.90;;;;;;5067705;28;19923;-77
2022/10/17 02:03:12;;;;;;;;;;;14.20;99.90;;;;;;5067643;28;19947;-75
2022/10/17 02:05:38;;;;;;;;;;;14.10;99.90;;;;;;5067785;28;20364;-75
2022/10/17 02:08:04;;;;;;;;;;;14.10;99.90;;;;;;5084374;28;19908;-76
2022/10/17 02:10:36;;;;;;;;;;;14.00;99.90;;;;;;5084823;28;19931;-76
2022/10/17 02:13:23;;;;;;;;;;;14.00;99.90;;;;;;5085338;28;19916;-75
2022/10/17 02:15:54;;;;;;;;;;;13.90;99.90;;;;;;5085578;28;19954;-76
2022/10/17 02:18:51;;;;;;;;;;;13.90;99.90;;;;;;5085190;28;20199;-76
2022/10/17 02:21:25;;;;;;;;;;;13.90;99.90;;;;;;5085019;28;19931;-75
2022/10/17 02:23:54;;;;;;;;;;;13.90;99.90;;;;;;5067467;28;19954;-75
2022/10/17 02:26:24;;;;;;;;;;;13.90;99.90;;;;;;5067289;28;19983;-76
2022/10/17 02:29:12;;;;;;;;;;;13.90;99.90;;;;;;5067291;28;19940;-76
2022/10/17 02:31:40;;;;;;;;;;;13.90;99.90;;;;;;5083137;28;19947;-75
2022/10/17 02:34:19;;;;;;;;;;;13.90;99.90;;;;;;5067413;28;19912;-75
2022/10/17 02:36:48;;;;;;;;;;;13.80;99.90;;;;;;5067438;28;19946;-75
2022/10/17 02:39:14;;;;;;;;;;;13.80;99.90;;;;;;5066963;28;19908;-75
2022/10/17 02:41:40;;;;;;;;;;;13.80;99.90;;;;;;5067039;28;19946;-75
2022/10/17 02:44:06;;;;;;;;;;;13.70;99.90;;;;;;5066914;28;20115;-75
2022/10/17 02:46:31;;;;;;;;;;;13.70;99.90;;;;;;5083122;28;19920;-75
2022/10/17 02:49:02;;;;;;;;;;;13.70;99.90;;;;;;5083503;28;19908;-75
2022/10/17 02:51:39;;;;;;;;;;;13.70;99.90;;;;;;5050366;28;19946;-75
2022/10/17 02:54:14;;;;;;;;;;;13.70;99.90;;;;;;5067960;28;19909;-76
2022/10/17 02:56:47;;;;;;;;;;;13.60;99.90;;;;;;5084219;28;19909;-75
2022/10/17 02:59:13;;;;;;;;;;;13.70;99.90;;;;;;5066972;28;19951;-77
2022/10/17 03:01:39;;;;;;;;;;;13.70;99.90;;;;;;5066466;28;19950;-76
2022/10/17 03:04:12;;;;;;;;;;;13.60;99.90;;;;;;5066494;28;20386;-75
2022/10/17 03:06:38;;;;;;;;;;;13.60;99.90;;;;;;5082961;28;19920;-75
2022/10/17 03:09:04;;;;;;;;;;;13.60;99.90;;;;;;5082534;28;19908;-76
2022/10/17 03:11:30;;;;;;;;;;;13.60;99.90;;;;;;5065891;28;19960;-75
2022/10/17 03:13:56;;;;;;;;;;;13.50;99.90;;;;;;5084177;28;19908;-76
2022/10/17 03:16:21;;;;;;;;;;;13.50;99.90;;;;;;5083593;28;19908;-77
2022/10/17 03:18:47;;;;;;;;;;;13.40;99.90;;;;;;5084101;28;20182;-76
2022/10/17 03:21:13;;;;;;;;;;;13.40;99.90;;;;;;5083993;28;19923;-75
2022/10/17 03:23:38;;;;;;;;;;;13.40;99.90;;;;;;5083897;28;19909;-75
2022/10/17 03:26:05;;;;;;;;;;;13.40;99.90;;;;;;5083864;28;19912;-75
2022/10/17 03:28:31;;;;;;;;;;;13.40;99.90;;;;;;5082193;28;19983;-75
2022/10/17 03:30:57;;;;;;;;;;;13.40;99.90;;;;;;5082629;28;19938;-75
2022/10/17 03:33:22;;;;;;;;;;;13.40;99.90;;;;;;5083844;28;19916;-75
2022/10/17 03:35:48;;;;;;;;;;;13.40;99.90;;;;;;5082582;28;20026;-76
2022/10/17 03:38:14;;;;;;;;;;;13.40;99.90;;;;;;5082094;28;19916;-76
2022/10/17 03:40:39;;;;;;;;;;;13.40;99.90;;;;;;5065738;28;19914;-75
2022/10/17 03:43:05;;;;;;;;;;;13.30;99.90;;;;;;5082321;28;19908;-75
2022/10/17 03:45:31;;;;;;;;;;;13.40;99.90;;;;;;5081915;28;19913;-76
2022/10/17 03:47:59;;;;;;;;;;;13.30;99.90;;;;;;5083091;28;20000;-76
2022/10/17 03:50:25;;;;;;;;;;;13.30;99.90;;;;;;5083364;28;19979;-76
2022/10/17 03:52:51;;;;;;;;;;;13.30;99.90;;;;;;5083201;28;19954;-77
2022/10/17 03:55:16;;;;;;;;;;;13.20;99.90;;;;;;5083295;28;19915;-75
2022/10/17 03:57:42;;;;;;;;;;;13.10;99.90;;;;;;5082942;28;19915;-75
2022/10/17 04:00:08;;;;;;;;;;;13.00;99.90;;;;;;5082897;28;19916;-76
2022/10/17 04:02:34;;;;;;;;;;;13.00;99.90;;;;;;5081745;28;20191;-75
2022/10/17 04:05:00;;;;;;;;;;;12.90;99.90;;;;;;5083172;28;19957;-76
2022/10/17 04:07:26;;;;;;;;;;;12.90;99.90;;;;;;5081714;28;20199;-75
2022/10/17 04:09:51;;;;;;;;;;;12.90;99.90;;;;;;5082048;28;19923;-76
2022/10/17 04:12:17;;;;;;;;;;;12.80;99.90;;;;;;5082321;28;20131;-75
2022/10/17 04:14:43;;;;;;;;;;;12.80;99.90;;;;;;5081898;28;19916;-76
2022/10/17 04:17:08;;;;;;;;;;;12.80;99.90;;;;;;5079149;28;19943;-75
2022/10/17 04:19:34;;;;;;;;;;;12.80;99.90;;;;;;5079446;28;19958;-75
2022/10/17 04:22:01;;;;;;;;;;;12.80;99.90;;;;;;5082729;28;19916;-77
2022/10/17 04:24:27;;;;;;;;;;;12.80;99.90;;;;;;5082803;28;19912;-75
2022/10/17 04:26:53;;;;;;;;;;;12.80;99.90;;;;;;5081165;28;20163;-75
2022/10/17 04:29:19;;;;;;;;;;;12.80;99.90;;;;;;5077449;28;20215;-75
2022/10/17 04:31:45;;;;;;;;;;;12.80;99.90;;;;;;5071430;28;19935;-76
2022/10/17 04:34:12;;;;;;;;;;;12.80;99.90;;;;;;5080811;28;19974;-75
2022/10/17 04:36:38;;;;;;;;;;;12.80;99.90;;;;;;5077932;28;20268;-76
2022/10/17 04:39:04;;;;;;;;;;;12.80;99.90;;;;;;5082378;28;19944;-75
2022/10/17 04:41:30;;;;;;;;;;;12.80;99.90;;;;;;5082785;28;20207;-75
2022/10/17 04:43:56;;;;;;;;;;;12.80;99.90;;;;;;5080933;28;19912;-76
2022/10/17 04:46:21;;;;;;;;;;;12.80;99.90;;;;;;5080590;28;19919;-76
2022/10/17 04:48:47;;;;;;;;;;;12.80;99.90;;;;;;5080014;28;20002;-76
2022/10/17 04:51:14;;;;;;;;;;;12.80;99.90;;;;;;5081375;28;19921;-78
2022/10/17 04:53:40;;;;;;;;;;;12.80;99.90;;;;;;5080807;28;19909;-76
2022/10/17 04:56:10;;;;;;;;;;;12.80;99.90;;;;;;5077939;28;19912;-75
2022/10/17 04:58:36;;;;;;;;;;;12.80;99.90;;;;;;5080646;28;19912;-76
2022/10/17 05:01:12;;;;;;;;;;;12.80;99.90;;;;;;5057809;28;19913;-75
2022/10/17 05:03:38;;;;;;;;;;;12.80;99.90;;;;;;5064184;28;19924;-76
2022/10/17 05:06:08;;;;;;;;;;;12.80;99.90;;;;;;5081642;28;19912;-76
2022/10/17 05:08:33;;;;;;;;;;;12.70;99.90;;;;;;5079453;28;20089;-76
2022/10/17 05:10:59;;;;;;;;;;;12.70;99.90;;;;;;5079909;28;19979;-77
2022/10/17 05:13:25;;;;;;;;;;;12.60;99.90;;;;;;5076941;28;19913;-76
2022/10/17 05:15:50;;;;;;;;;;;12.50;99.90;;;;;;5076959;28;19928;-75
2022/10/17 05:18:16;;;;;;;;;;;12.50;99.90;;;;;;5075124;28;19913;-76
2022/10/17 05:20:42;;;;;;;;;;;12.50;99.90;;;;;;5080446;28;19940;-76
2022/10/17 05:23:07;;;;;;;;;;;12.50;99.90;;;;;;5080548;28;20249;-77
2022/10/17 05:25:33;;;;;;;;;;;12.50;99.90;;;;;;5081643;28;20211;-75
2022/10/17 05:27:59;;;;;;;;;;;12.50;99.90;;;;;;5081188;28;19912;-76
2022/10/17 05:30:24;;;;;;;;;;;12.50;99.90;;;;;;5081177;28;19909;-77
2022/10/17 05:32:53;;;;;;;;;;;12.50;99.90;;;;;;5080517;28;19916;-76
2022/10/17 05:35:20;;;;;;;;;;;12.50;99.90;;;;;;5080816;28;19975;-75
2022/10/17 05:37:45;;;;;;;;;;;12.50;99.90;;;;;;5080273;28;19924;-74
2022/10/17 05:40:11;;;;;;;;;;;12.50;99.90;;;;;;5078845;28;19920;-75
2022/10/17 05:42:37;;;;;;;;;;;12.50;99.90;;;;;;5081550;28;19940;-76
2022/10/17 05:45:03;;;;;;;;;;;12.50;99.90;;;;;;5075453;28;19960;-75
2022/10/17 05:47:28;;;;;;;;;;;12.50;99.90;;;;;;5072553;28;19916;-76
2022/10/17 05:49:54;;;;;;;;;;;12.50;99.90;;;;;;5080120;28;19912;-77
2022/10/17 05:52:20;;;;;;;;;;;12.40;99.90;;;;;;5081590;28;19923;-75
2022/10/17 05:54:45;;;;;;;;;;;12.40;99.90;;;;;;5084394;28;19919;-75
2022/10/17 05:57:11;;;;;;;;;;;12.40;99.90;;;;;;5083791;28;19915;-76
2022/10/17 05:59:37;;;;;;;;;;;12.30;99.90;;;;;;5084796;28;19946;-77
2022/10/17 06:02:02;;;;;;;;;;;12.40;99.90;;;;;;5084825;28;19923;-75
2022/10/17 06:04:28;;;;;;;;;;;12.30;99.90;;;;;;5084874;28;19917;-76
2022/10/17 06:06:55;;;;;;;;;;;12.40;99.90;;;;;;5084637;28;19919;-76
2022/10/17 06:09:21;;;;;;;;;;;12.40;99.90;;;;;;5084821;28;20092;-75
2022/10/17 06:11:47;;;;;;;;;;;12.40;99.90;;;;;;5083220;28;20014;-76
2022/10/17 06:14:12;;;;;;;;;;;12.40;99.90;;;;;;5084736;28;19920;-75
2022/10/17 06:16:38;;;;;;;;;;;12.40;99.90;;;;;;5084188;28;19916;-75
2022/10/17 06:19:04;;;;;;;;;;;12.40;99.90;;;;;;5084593;28;20305;-75
2022/10/17 06:21:33;;;;;;;;;;;12.50;99.90;;;;;;5084615;28;19975;-75
2022/10/17 06:23:58;;;;;;;;;;;12.50;99.90;;;;;;5084635;28;19920;-75
2022/10/17 06:26:24;;;;;;;;;;;12.50;99.90;;;;;;5084363;28;19913;-76
2022/10/17 06:28:50;;;;;;;;;;;12.60;99.90;;;;;;5084309;28;19915;-75
2022/10/17 06:31:16;;;;;;;;;;;12.60;99.90;;;;;;5083415;28;20238;-75
2022/10/17 06:33:41;;;;;;;;;;;12.70;99.90;;;;;;5083558;28;19989;-75
2022/10/17 06:36:08;;;;;;;;;;;12.70;99.90;;;;;;5084192;28;19916;-75
2022/10/17 06:38:34;;;;;;;;;;;12.80;99.90;;;;;;5065989;28;19912;-75
2022/10/17 06:41:12;;;;;;;;;;;12.80;99.90;;;;;;5083953;28;19920;-76
2022/10/17 06:43:38;;;;;;;;;;;12.90;99.90;;;;;;5083883;28;19923;-74
2022/10/17 06:46:04;;;;;;;;;;;13.00;99.90;;;;;;5082547;28;19987;-76
2022/10/17 06:48:29;;;;;;;;;;;13.10;99.90;;;;;;5082810;28;19912;-75
2022/10/17 06:51:03;;;;;;;;;;;13.10;99.90;;;;;;5084627;28;19909;-75
2022/10/17 06:53:30;;;;;;;;;;;13.10;99.90;;;;;;5083661;28;19992;-75
2022/10/17 06:56:00;;;;;;;;;;;13.20;99.90;;;;;;5083193;28;20227;-76
2022/10/17 06:58:27;;;;;;;;;;;13.10;99.90;;;;;;5084418;28;19908;-75
2022/10/17 07:00:57;;;;;;;;;;;13.10;99.90;;;;;;5084054;28;19954;-76
2022/10/17 07:03:23;;;;;;;;;;;13.20;99.90;;;;;;5049400;28;19916;-75
2022/10/17 07:05:52;;;;;;;;;;;13.20;99.90;;;;;;5083798;28;19912;-76
2022/10/17 07:08:18;;;;;;;;;;;13.20;99.90;;;;;;5082824;28;20162;-75
2022/10/17 07:10:44;;;;;;;;;;;13.30;99.90;;;;;;5084320;28;19913;-75
2022/10/17 07:13:09;;;;;;;;;;;13.30;99.90;;;;;;5083925;28;19962;-75
2022/10/17 07:15:36;;;;;;;;;;;13.40;99.90;;;;;;5084234;28;19947;-75
2022/10/17 07:18:01;;;;;;;;;;;13.40;99.90;;;;;;5083671;28;20003;-74
2022/10/17 07:20:27;;;;;;;;;;;13.50;99.90;;;;;;5084141;28;19912;-75
2022/10/17 07:22:53;;;;;;;;;;;13.50;99.90;;;;;;5082851;28;19970;-74
2022/10/17 07:25:18;;;;;;;;;;;13.60;99.90;;;;;;5083764;28;19966;-75
2022/10/17 07:27:45;;;;;;;;;;;13.60;99.90;;;;;;5081811;28;20178;-75
2022/10/17 07:30:10;;;;;;;;;;;13.70;99.90;;;;;;5083975;28;19909;-75
2022/10/17 07:32:36;;;;;;;;;;;13.70;99.90;;;;;;5082792;28;19936;-75
2022/10/17 07:35:02;;;;;;;;;;;13.80;99.90;;;;;;5082655;28;19916;-75
2022/10/17 07:37:28;;;;;;;;;;;13.80;99.90;;;;;;5083364;28;19919;-74
2022/10/17 07:39:55;;;;;;;;;;;13.90;99.90;;;;;;5082555;28;20254;-74
2022/10/17 07:42:21;;;;;;;;;;;14.00;99.90;;;;;;5083768;28;19908;-75
2022/10/17 07:44:46;;;;;;;;;;;14.10;99.90;;;;;;5082573;28;20221;-75
2022/10/17 07:47:12;;;;;;;;;;;14.10;99.90;;;;;;5082647;28;20169;-75
2022/10/17 07:49:41;;;;;;;;;;;14.20;99.90;;;;;;5082164;28;19944;-76
2022/10/17 07:52:10;;;;;;;;;;;14.20;99.90;;;;;;5083550;28;20204;-75
2022/10/17 07:54:36;;;;;;;;;;;14.30;99.90;;;;;;5081395;28;19948;-75
2022/10/17 07:57:02;;;;;;;;;;;14.30;99.90;;;;;;5083121;28;20122;-75
2022/10/17 07:59:28;;;;;;;;;;;14.40;99.90;;;;;;5083385;28;19986;-75
2022/10/17 08:01:56;;;;;;;;;;;14.50;99.90;;;;;;5083317;28;19915;-75
2022/10/17 08:04:22;;;;;;;;;;;14.60;99.90;;;;;;5082742;28;19912;-75
2022/10/17 08:06:48;;;;;;;;;;;14.80;99.90;;;;;;5081945;28;19958;-74
2022/10/17 08:09:14;;;;;;;;;;;14.80;99.90;;;;;;5081818;28;20158;-75
2022/10/17 08:11:42;;;;;;;;;;;14.90;99.90;;;;;;5083228;28;20209;-75
2022/10/17 08:14:11;;;;;;;;;;;15.00;99.90;;;;;;5082345;28;19920;-75
2022/10/17 08:16:37;;;;;;;;;;;15.10;99.90;;;;;;5081455;28;20203;-75
2022/10/17 08:19:03;;;;;;;;;;;15.20;99.90;;;;;;5082954;28;19916;-76
2022/10/17 08:21:29;;;;;;;;;;;15.40;99.90;;;;;;5082951;28;19981;-76
2022/10/17 08:23:55;;;;;;;;;;;15.50;99.90;;;;;;5081784;28;20231;-75
2022/10/17 08:26:20;;;;;;;;;;;15.50;99.90;;;;;;5082811;28;19908;-75
2022/10/17 08:28:46;;;;;;;;;;;15.70;99.90;;;;;;5081528;28;19974;-75
2022/10/17 08:31:19;;;;;;;;;;;15.70;99.90;;;;;;5082608;28;19930;-75
2022/10/17 08:33:45;;;;;;;;;;;15.90;99.90;;;;;;5080762;28;20144;-75
2022/10/17 08:36:12;;;;;;;;;;;16.10;99.90;;;;;;5081463;28;20222;-75
2022/10/17 08:38:38;;;;;;;;;;;16.20;99.90;;;;;;5082804;28;20223;-75
2022/10/17 08:41:06;;;;;;;;;;;16.30;99.90;;;;;;5081604;28;19908;-74
2022/10/17 08:43:50;;;;;;;;;;;16.40;99.90;;;;;;5081392;28;20184;-75
2022/10/17 08:46:16;;;;;;;;;;;16.50;99.90;;;;;;5081425;28;19979;-76
2022/10/17 08:48:42;;;;;;;;;;;16.60;99.90;;;;;;5081147;28;19915;-75
2022/10/17 08:51:13;;;;;;;;;;;16.80;99.90;;;;;;5081457;28;19924;-76
2022/10/17 08:54:11;;;;;;;;;;;17.00;99.90;;;;;;5065386;28;20209;-75
2022/10/17 08:56:41;;;;;;;;;;;17.20;99.90;;;;;;5066968;28;19912;-75
2022/10/17 08:59:15;;;;;;;;;;;17.30;99.90;;;;;;5082482;28;19915;-75
2022/10/17 09:02:09;;;;;;;;;;;17.40;99.90;;;;;;5065426;28;19908;-75
2022/10/17 09:04:47;;;;;;;;;;;17.60;99.90;;;;;;5066030;28;19969;-75
2022/10/17 09:07:36;;;;;;;;;;;17.80;99.90;;;;;;5081187;28;19908;-75
2022/10/17 09:10:07;;;;;;;;;;;17.90;99.90;;;;;;5076739;28;20195;-76
2022/10/17 09:12:50;;;;;;;;;;;18.00;99.90;;;;;;5082514;28;19924;-76
2022/10/17 09:15:34;;;;;;;;;;;18.10;99.90;;;;;;5081274;28;19908;-75
2022/10/17 09:18:19;;;;;;;;;;;18.20;99.90;;;;;;5080622;28;20146;-75
2022/10/17 09:20:48;;;;;;;;;;;18.30;99.90;;;;;;5065339;28;20115;-77
2022/10/17 09:23:16;;;;;;;;;;;18.40;99.90;;;;;;5064944;28;19952;-75
2022/10/17 09:25:47;;;;;;;;;;;18.50;99.90;;;;;;5081247;28;19944;-75
2022/10/17 09:28:21;;;;;;;;;;;18.60;99.90;;;;;;5084446;28;19916;-76
2022/10/17 09:30:50;;;;;;;;;;;18.70;99.90;;;;;;5069189;28;19909;-75
2022/10/17 09:33:16;;;;;;;;;;;18.80;99.90;;;;;;5084341;28;19915;-75
2022/10/17 09:35:42;;;;;;;;;;;18.90;99.90;;;;;;5086396;28;20111;-75
2022/10/17 09:38:12;;;;;;;;;;;19.10;99.90;;;;;;5085140;28;19923;-75
2022/10/17 09:40:38;;;;;;;;;;;19.20;99.90;;;;;;5085595;28;20241;-75
2022/10/17 09:43:04;;;;;;;;;;;19.40;99.90;;;;;;5068150;28;19921;-76
2022/10/17 09:45:32;;;;;;;;;;;19.50;99.90;;;;;;5068227;28;20142;-75
2022/10/17 09:48:10;;;;;;;;;;;19.60;99.90;;;;;;5067093;28;19991;-76
2022/10/17 09:50:35;;;;;;;;;;;19.80;99.90;;;;;;5068897;28;19951;-77
2022/10/17 09:53:23;;;;;;;;;;;20.00;99.90;;;;;;5068113;28;19912;-75
2022/10/17 09:55:54;;;;;;;;;;;20.00;99.90;;;;;;5067360;28;19966;-75
2022/10/17 09:58:21;;;;;;;;;;;20.20;99.90;;;;;;5085568;28;19947;-76
2022/10/17 10:00:47;;;;;;;;;;;20.40;99.90;;;;;;5067991;28;19915;-77
2022/10/17 10:03:20;;;;;;;;;;;20.50;99.90;;;;;;5085693;28;19994;-76
2022/10/17 10:06:03;;;;;;;;;;;20.70;99.90;;;;;;5084629;28;19915;-76
2022/10/17 10:08:36;;;;;;;;;;;20.80;99.90;;;;;;5085426;28;19917;-76
2022/10/17 10:11:07;;;;;;;;;;;21.10;99.90;;;;;;5068316;28;20279;-76
2022/10/17 10:13:33;;;;;;;;;;;21.20;99.90;;;;;;5084381;28;19915;-76
2022/10/17 10:16:17;;;;;;;;;;;21.30;99.90;;;;;;5083905;28;19923;-77
2022/10/17 10:18:42;;;;;;;;;;;21.50;99.90;;;;;;5085304;28;19962;-76
2022/10/17 10:21:16;;;;;;;;;;;21.60;99.90;;;;;;5085064;28;20208;-76
2022/10/17 10:23:43;;;;;;;;;;;21.80;99.90;;;;;;5067398;28;19916;-76
2022/10/17 10:26:21;;;;;;;;;;;22.00;99.90;;;;;;5083761;28;19923;-76
2022/10/17 10:28:57;;;;;;;;;;;22.20;99.90;;;;;;5085095;28;19923;-76
2022/10/17 10:31:34;;;;;;;;;;;22.40;99.90;;;;;;5067628;28;19917;-75
2022/10/17 10:34:10;;;;;;;;;;;22.40;99.90;;;;;;5066554;28;19912;-75
2022/10/17 10:36:56;;;;;;;;;;;22.50;99.90;;;;;;5067777;28;19931;-75
2022/10/17 10:39:35;;;;;;;;;;;22.60;99.90;;;;;;5085136;28;19912;-75
2022/10/17 10:42:02;;;;;;;;;;;22.80;99.90;;;;;;5084857;28;19909;-75
2022/10/17 10:44:28;;;;;;;;;;;23.00;99.90;;;;;;5067126;28;19919;-76
2022/10/17 10:47:20;;;;;;;;;;;23.30;99.90;;;;;;5066492;28;19908;-75
2022/10/17 10:49:46;;;;;;;;;;;23.50;99.90;;;;;;5067962;28;19909;-75
2022/10/17 10:52:21;;;;;;;;;;;23.60;99.90;;;;;;5083602;28;20294;-76
2022/10/17 10:54:53;;;;;;;;;;;23.90;99.90;;;;;;5067357;28;19909;-75
2022/10/17 10:57:20;;;;;;;;;;;24.20;99.90;;;;;;5084381;28;19909;-75
2022/10/17 10:59:48;;;;;;;;;;;24.40;99.90;;;;;;5066764;28;19908;-75
2022/10/17 11:02:40;;;;;;;;;;;24.60;99.90;;;;;;5084534;28;19915;-75
2022/10/17 11:05:27;;;;;;;;;;;24.70;99.90;;;;;;5083283;28;19919;-76
2022/10/17 11:07:57;;;;;;;;;;;24.70;99.90;;;;;;5084071;28;19923;-75
2022/10/17 11:10:32;;;;;;;;;;;24.90;99.90;;;;;;5084311;28;20224;-75
2022/10/17 11:13:16;;;;;;;;;;;25.00;99.90;;;;;;5084422;28;20212;-75
2022/10/17 11:15:48;;;;;;;;;;;25.20;99.90;;;;;;5084178;28;19963;-77
2022/10/17 11:18:31;;;;;;;;;;;25.20;99.90;;;;;;5082051;28;20159;-75
2022/10/17 11:21:19;;;;;;;;;;;25.00;99.90;;;;;;5084082;28;19912;-74
2022/10/17 11:23:53;;;;;;;;;;;24.80;99.90;;;;;;5083625;28;20089;-75
2022/10/17 11:26:25;;;;;;;;;;;24.60;99.90;;;;;;5066375;28;20227;-76
2022/10/17 11:28:55;;;;;;;;;;;24.50;99.90;;;;;;5067089;28;20145;-75
2022/10/17 11:31:22;;;;;;;;;;;24.40;99.90;;;;;;5066272;28;19915;-76
2022/10/17 11:33:59;;;;;;;;;;;24.50;99.90;;;;;;5065517;28;19908;-75
2022/10/17 11:36:38;;;;;;;;;;;24.50;99.90;;;;;;5065895;28;19916;-75
2022/10/17 11:39:12;;;;;;;;;;;24.60;99.90;;;;;;5082627;28;20114;-75
2022/10/17 11:41:50;;;;;;;;;;;24.80;99.90;;;;;;5082809;28;19958;-75
2022/10/17 11:44:27;;;;;;;;;;;25.00;99.90;;;;;;5082454;28;19927;-75
2022/10/17 11:46:56;;;;;;;;;;;25.10;99.90;;;;;;5082957;28;19916;-76
2022/10/17 11:49:26;;;;;;;;;;;25.20;99.90;;;;;;5065421;28;19908;-75
2022/10/17 11:51:55;;;;;;;;;;;25.40;99.90;;;;;;5081567;28;19940;-76
2022/10/17 11:54:23;;;;;;;;;;;25.60;99.90;;;;;;5066018;28;20145;-75
2022/10/17 11:56:57;;;;;;;;;;;25.90;99.90;;;;;;5083146;28;19915;-75
2022/10/17 11:59:42;;;;;;;;;;;26.40;99.90;;;;;;5083298;28;19959;-75
2022/10/17 12:02:11;;;;;;;;;;;27.10;99.90;;;;;;5083291;28;19916;-76
2022/10/17 12:04:44;;;;;;;;;;;28.00;99.90;;;;;;5065486;28;19952;-75
2022/10/17 12:07:15;;;;;;;;;;;28.70;96.10;;;;;;5065204;28;19915;-75
2022/10/17 12:09:41;;;;;;;;;;;29.60;92.60;;;;;;5065835;28;19908;-75
2022/10/17 12:12:07;;;;;;;;;;;30.50;79.70;;;;;;5083179;28;20030;-76
2022/10/17 12:14:32;;;;;;;;;;;31.10;70.80;;;;;;5083121;28;19916;-76
2022/10/17 12:16:59;;;;;;;;;;;31.40;58.00;;;;;;5082360;28;19920;-76
2022/10/17 12:19:27;;;;;;;;;;;32.00;54.10;;;;;;5065265;28;19912;-76
2022/10/17 12:22:04;;;;;;;;;;;32.50;45.30;;;;;;5065311;28;19943;-76
2022/10/17 12:24:35;;;;;;;;;;;33.00;44.90;;;;;;5081860;28;19913;-75
2022/10/17 12:27:37;;;;;;;;;;;33.60;29.50;;;;;;5082689;28;20303;-76
2022/10/17 12:30:06;;;;;;;;;;;34.10;18.70;;;;;;5040491;28;20263;-75
2022/10/17 12:32:31;;;;;;;;;;;33.70;23.70;;;;;;5074494;28;19915;-75
2022/10/17 12:34:57;;;;;;;;;;;33.90;17.50;;;;;;5080840;28;20115;-75
2022/10/17 12:37:41;;;;;;;;;;;33.60;20.90;;;;;;5064563;28;19926;-75
2022/10/17 12:40:34;;;;;;;;;;;33.30;21.60;;;;;;5082920;28;19909;-75
2022/10/17 12:43:01;;;;;;;;;;;33.60;18.90;;;;;;5082681;28;19916;-75
2022/10/17 12:45:46;;;;;;;;;;;33.50;19.80;;;;;;5081684;28;20246;-75
2022/10/17 12:48:31;;;;;;;;;;;34.00;17.80;;;;;;5065117;28;19980;-75
2022/10/17 12:51:10;;;;;;;;;;;34.40;17.20;;;;;;5081272;28;20227;-75
2022/10/17 12:53:39;;;;;;;;;;;35.30;11.00;;;;;;5082307;28;19909;-75
2022/10/17 12:56:05;;;;;;;;;;;35.70;11.10;;;;;;5082312;28;19983;-72
2022/10/17 12:58:30;;;;;;;;;;;36.50;6.50;;;;;;5081197;28;19973;-73
2022/10/17 13:00:56;;;;;;;;;;;37.30;2.60;;;;;;5081886;28;19958;-73
2022/10/17 13:03:30;;;;;;;;;;;38.00;1.00;;;;;;5063801;28;20254;-73
2022/10/17 13:06:04;;;;;;;;;;;38.50;1.00;;;;;;5064859;28;20014;-73
2022/10/17 13:08:36;;;;;;;;;;;38.30;1.00;;;;;;5064473;28;19916;-74
2022/10/17 13:11:02;;;;;;;;;;;38.40;1.00;;;;;;5064803;28;20200;-73
2022/10/17 13:13:42;;;;;;;;;;;37.90;1.00;;;;;;5081251;28;19920;-74
2022/10/17 13:16:07;;;;;;;;;;;38.20;1.00;;;;;;5081067;28;19908;-74
2022/10/17 13:18:33;;;;;;;;;;;39.00;1.00;;;;;;5081838;28;19923;-73
2022/10/17 13:21:06;;;;;;;;;;;39.90;1.00;;;;;;5082044;28;19917;-75
2022/10/17 13:23:35;;;;;;;;;;;40.30;1.00;;;;;;5081276;28;19987;-75
2022/10/17 13:26:21;;;;;;;;;;;39.60;1.00;;;;;;5082298;28;19915;-75
2022/10/17 13:29:03;;;;;;;;;;;39.20;1.00;;;;;;5081893;28;20145;-75
2022/10/17 13:31:37;;;;;;;;;;;38.50;1.00;;;;;;5081253;28;19908;-76
2022/10/17 13:34:04;;;;;;;;;;;38.40;1.00;;;;;;5080886;28;19922;-77
2022/10/17 13:36:30;;;;;;;;;;;38.70;1.00;;;;;;5081827;28;19908;-73
2022/10/17 13:38:57;;;;;;;;;;;39.50;1.00;;;;;;5064232;28;20107;-73
2022/10/17 13:41:26;;;;;;;;;;;40.40;1.00;;;;;;5080720;28;19916;-74
2022/10/17 13:43:53;;;;;;;;;;;41.10;1.00;;;;;;5082038;28;19912;-74
2022/10/17 13:46:29;;;;;;;;;;;41.70;1.00;;;;;;5080859;28;20120;-74
2022/10/17 13:48:56;;;;;;;;;;;41.90;1.00;;;;;;5081749;28;19909;-73
2022/10/17 13:51:22;;;;;;;;;;;42.10;1.00;;;;;;5064520;28;19947;-74
2022/10/17 13:53:48;;;;;;;;;;;41.70;1.00;;;;;;5080565;28;20003;-74
2022/10/17 13:56:23;;;;;;;;;;;41.80;1.00;;;;;;5081840;28;19908;-73
2022/10/17 13:58:56;;;;;;;;;;;41.00;1.00;;;;;;5080953;28;19948;-73
2022/10/17 14:01:22;;;;;;;;;;;40.20;1.00;;;;;;5082087;28;20114;-73
2022/10/17 14:03:48;;;;;;;;;;;39.90;1.00;;;;;;5080551;28;20135;-73
2022/10/17 14:06:16;;;;;;;;;;;39.60;1.00;;;;;;5063600;28;19916;-73
2022/10/17 14:08:50;;;;;;;;;;;38.60;1.00;;;;;;5080733;28;20195;-73
2022/10/17 14:11:30;;;;;;;;;;;36.70;1.00;;;;;;5080660;28;20110;-74
2022/10/17 14:13:56;;;;;;;;;;;34.20;7.20;;;;;;5083604;28;19946;-73
2022/10/17 14:16:22;;;;;;;;;;;32.50;19.10;;;;;;5083945;28;19908;-74
2022/10/17 14:18:48;;;;;;;;;;;31.30;30.00;;;;;;5084162;28;20050;-73
2022/10/17 14:21:21;;;;;;;;;;;30.50;37.50;;;;;;5049910;28;19909;-73
2022/10/17 14:23:47;;;;;;;;;;;29.40;51.00;;;;;;5083996;28;19913;-74
2022/10/17 14:26:21;;;;;;;;;;;28.50;65.70;;;;;;5084012;28;19935;-74
2022/10/17 14:29:04;;;;;;;;;;;27.80;79.20;;;;;;5084128;28;19914;-76
2022/10/17 14:31:34;;;;;;;;;;;27.40;85.80;;;;;;5084264;28;20172;-76
2022/10/17 14:34:00;;;;;;;;;;;26.90;88.10;;;;;;5083846;28;19954;-76
2022/10/17 14:36:31;;;;;;;;;;;26.70;89.70;;;;;;5082595;28;19915;-77